createdAt,value
2019-01-23T00:00:15.106Z,51.5
2019-01-23T00:05:20.942Z,51.4
2019-01-23T00:10:23.068Z,51.3
2019-01-23T00:15:25.240Z,51.2
2019-01-23T00:20:28.319Z,51.2
2019-01-23T00:25:30.426Z,51.1
2019-01-23T00:30:35.982Z,51.1
2019-01-23T00:35:38.100Z,50.9
2019-01-23T00:40:43.219Z,50.9
2019-01-23T00:45:46.228Z,50.8
2019-01-23T00:50:48.289Z,50.8
2019-01-23T00:55:50.472Z,50.7
2019-01-23T01:00:52.594Z,50.6
2019-01-23T01:05:54.694Z,50.5
2019-01-23T01:10:57.897Z,50.4
2019-01-23T01:16:00.028Z,50.4
2019-01-23T01:21:02.117Z,50.3
2019-01-23T01:26:04.230Z,50.2
2019-01-23T01:31:06.381Z,50.1
2019-01-23T01:36:08.655Z,50.1
2019-01-23T01:41:11.850Z,50
2019-01-23T01:46:13.922Z,49.9
2019-01-23T01:51:15.997Z,49.9
2019-01-23T01:56:18.084Z,49.8
2019-01-23T02:01:23.062Z,49.7
2019-01-23T02:06:25.279Z,49.6
2019-01-23T02:11:36.338Z,49.6
2019-01-23T02:16:38.387Z,49.5
2019-01-23T02:21:40.396Z,49.4
2019-01-23T02:26:42.483Z,49.4
2019-01-23T02:31:44.560Z,49.3
2019-01-23T02:36:46.569Z,49.2
2019-01-23T02:41:51.385Z,49.1
2019-01-23T02:46:57.277Z,49.1
2019-01-23T02:52:02.495Z,49
2019-01-23T02:57:04.616Z,48.9
2019-01-23T03:02:06.650Z,48.9
2019-01-23T03:07:08.922Z,48.8
2019-01-23T03:12:10.938Z,48.7
2019-01-23T03:17:13.970Z,48.7
2019-01-23T03:22:15.967Z,48.6
2019-01-23T03:27:18.026Z,48.5
2019-01-23T03:32:20.070Z,48.4
2019-01-23T03:37:22.107Z,48.4
2019-01-23T03:42:24.134Z,48.3
2019-01-23T03:47:26.903Z,48.3
2019-01-23T03:52:50.087Z,48.2
2019-01-23T03:57:52.760Z,48.1
2019-01-23T04:02:54.709Z,48.1
2019-01-23T04:07:56.689Z,48
2019-01-23T04:12:59.636Z,47.9
2019-01-23T04:18:02.090Z,47.9
2019-01-23T04:23:04.094Z,47.8
2019-01-23T04:28:06.041Z,47.7
2019-01-23T04:33:10.324Z,47.7
2019-01-23T04:38:16.310Z,47.6
2019-01-23T04:43:24.210Z,47.5
2019-01-23T04:48:26.216Z,47.4
2019-01-23T04:53:29.299Z,47.4
2019-01-23T04:58:34.191Z,47.2
2019-01-23T05:03:36.110Z,47.1
2019-01-23T05:08:41.402Z,47
2019-01-23T05:13:43.499Z,46.9
2019-01-23T05:18:46.501Z,46.9
2019-01-23T05:23:49.659Z,46.8
2019-01-23T05:28:54.588Z,46.7
2019-01-23T05:33:56.492Z,46.6
2019-01-23T05:38:58.532Z,46.6
2019-01-23T05:44:01.546Z,46.5
2019-01-23T05:49:03.498Z,46.3
2019-01-23T05:54:06.458Z,46.2
2019-01-23T05:59:09.493Z,46.2
2019-01-23T06:04:11.416Z,46.1
2019-01-23T06:09:13.334Z,46
2019-01-23T06:14:15.275Z,45.9
2019-01-23T06:19:17.286Z,45.9
2019-01-23T06:24:19.230Z,45.8
2019-01-23T06:29:21.162Z,45.8
2019-01-23T06:34:32.957Z,45.8
2019-01-23T06:39:35.139Z,45.7
2019-01-23T06:44:37.197Z,45.6
2019-01-23T06:49:39.201Z,45.6
2019-01-23T06:54:41.104Z,45.5
2019-01-23T06:59:43.075Z,45.4
2019-01-23T07:04:45.050Z,45.4
2019-01-23T07:09:46.976Z,45.3
2019-01-23T07:14:52.770Z,45.2
2019-01-23T07:19:54.740Z,45.2
2019-01-23T07:24:56.675Z,45.1
2019-01-23T07:29:58.636Z,45.1
2019-01-23T07:35:02.767Z,45.1
2019-01-23T07:40:08.682Z,45
2019-01-23T07:45:10.600Z,44.9
2019-01-23T07:50:12.483Z,44.9
2019-01-23T07:55:15.391Z,44.8
2019-01-23T08:00:18.424Z,44.7
2019-01-23T08:05:21.395Z,44.7
2019-01-23T08:10:23.463Z,44.7
2019-01-23T08:15:26.481Z,44.6
2019-01-23T08:20:31.198Z,44.6
2019-01-23T08:25:33.051Z,44.5
2019-01-23T08:30:38.793Z,44.4
2019-01-23T08:35:42.532Z,44.4
2019-01-23T08:40:44.389Z,44.4
2019-01-23T08:45:50.453Z,44.3
2019-01-23T08:50:52.341Z,44.2
2019-01-23T08:55:54.182Z,44.2
2019-01-23T09:00:59.572Z,44.1
2019-01-23T09:06:01.546Z,44.1
2019-01-23T09:11:04.516Z,44.1
2019-01-23T09:16:06.444Z,44
2019-01-23T09:21:08.572Z,43.9
2019-01-23T09:26:10.426Z,43.9
2019-01-23T09:31:14.970Z,43.8
2019-01-23T09:36:16.848Z,43.8
2019-01-23T09:41:19.171Z,43.7
2019-01-23T09:46:21.063Z,43.7
2019-01-23T09:51:22.941Z,43.6
2019-01-23T09:56:24.877Z,43.6
2019-01-23T10:01:27.930Z,43.6
2019-01-23T10:06:29.784Z,43.5
2019-01-23T10:11:32.675Z,43.4
2019-01-23T10:16:34.961Z,43.4
2019-01-23T10:21:39.824Z,43.4
2019-01-23T10:26:44.173Z,43.3
2019-01-23T10:31:46.113Z,43.3
2019-01-23T10:36:50.684Z,43.2
2019-01-23T10:41:52.565Z,43.2
2019-01-23T10:46:54.458Z,43.1
2019-01-23T10:51:59.282Z,43.1
2019-01-23T10:57:01.156Z,43
2019-01-23T11:02:03.126Z,43
2019-01-23T11:07:08.924Z,42.9
2019-01-23T11:12:10.800Z,42.8
2019-01-23T11:17:12.670Z,42.7
2019-01-23T11:22:14.488Z,42.7
2019-01-23T11:27:17.366Z,42.6
2019-01-23T11:32:19.246Z,42.6
2019-01-23T11:37:21.123Z,42.6
2019-01-23T11:42:22.974Z,42.5
2019-01-23T11:47:27.872Z,42.4
2019-01-23T11:52:30.574Z,42.4
2019-01-23T11:57:32.531Z,42.4
2019-01-23T12:02:37.202Z,42.3
2019-01-23T12:07:39.069Z,42.2
2019-01-23T12:12:44.945Z,42.2
2019-01-23T12:17:47.628Z,42.2
2019-01-23T12:22:49.494Z,42.2
2019-01-23T12:27:51.309Z,42.1
2019-01-23T12:32:53.159Z,42.1
2019-01-23T12:37:56.031Z,42
2019-01-23T12:42:58.890Z,42
2019-01-23T12:48:00.720Z,41.9
2019-01-23T12:53:02.562Z,41.9
2019-01-23T12:58:04.313Z,41.9
2019-01-23T13:03:06.178Z,41.8
2019-01-23T13:08:08.012Z,41.7
2019-01-23T13:13:12.426Z,41.7
2019-01-23T13:18:14.596Z,41.7
2019-01-23T13:23:19.725Z,41.6
2019-01-23T13:28:22.076Z,41.6
2019-01-23T13:33:23.988Z,41.6
2019-01-23T13:38:25.438Z,41.5
2019-01-23T13:43:27.246Z,41.5
2019-01-23T13:48:28.010Z,41.4
2019-01-23T13:53:29.932Z,41.4
2019-01-23T13:58:31.709Z,41.4
2019-01-23T14:03:35.101Z,41.3
2019-01-23T14:08:36.925Z,41.2
2019-01-23T14:13:38.735Z,41.2
2019-01-23T14:18:40.620Z,41.2
2019-01-23T14:23:42.582Z,41.2
2019-01-23T14:28:44.370Z,41.1
2019-01-23T14:33:46.146Z,41.1
2019-01-23T14:38:49.015Z,41.1
2019-01-23T14:43:50.823Z,41
2019-01-23T14:48:56.209Z,41
2019-01-23T14:54:01.607Z,40.9
2019-01-23T14:59:03.437Z,40.9
2019-01-23T15:04:05.351Z,40.9
2019-01-23T15:09:07.349Z,40.8
2019-01-23T15:14:11.887Z,40.8
2019-01-23T15:19:16.800Z,40.8
2019-01-23T15:24:18.661Z,40.7
2019-01-23T15:29:20.491Z,40.7
2019-01-23T15:34:22.319Z,40.6
2019-01-23T15:39:24.351Z,40.4
2019-01-23T15:44:26.203Z,40.3
2019-01-23T15:49:28.051Z,40.2
2019-01-23T15:54:29.859Z,40.2
2019-01-23T15:59:31.745Z,40.2
2019-01-23T16:04:35.175Z,40.2
2019-01-23T16:09:38.470Z,40.1
2019-01-23T16:14:40.630Z,40.1
2019-01-23T16:19:45.633Z,40.1
2019-01-23T16:24:50.523Z,40
2019-01-23T16:29:53.380Z,40
2019-01-23T16:35:00.801Z,39.9
2019-01-23T16:40:05.834Z,39.9
2019-01-23T16:45:08.632Z,39.9
2019-01-23T16:50:10.439Z,39.9
2019-01-23T16:55:12.858Z,39.8
2019-01-23T17:00:15.564Z,39.7
2019-01-23T17:05:17.504Z,39.7
2019-01-23T17:10:22.233Z,39.7
2019-01-23T17:15:25.997Z,39.7
2019-01-23T17:20:27.845Z,39.6
2019-01-23T17:25:29.649Z,41.9
2019-01-23T17:30:33.116Z,44.1
2019-01-23T17:35:38.826Z,45.7
2019-01-23T17:40:40.801Z,46.9
2019-01-23T17:45:42.750Z,48.1
2019-01-23T17:50:44.853Z,49.1
2019-01-23T17:55:46.938Z,50
2019-01-23T18:00:49.039Z,50.7
2019-01-23T18:05:51.917Z,51.4
2019-01-23T18:10:54.026Z,51.8
2019-01-23T18:15:56.111Z,52.2
2019-01-23T18:21:01.361Z,52.9
2019-01-23T18:26:04.553Z,53.5
2019-01-23T18:31:05.105Z,53.9
2019-01-23T18:36:05.727Z,54.2
2019-01-23T18:41:06.348Z,54.6
2019-01-23T18:46:06.898Z,54.3
2019-01-23T18:51:08.464Z,53.7
2019-01-23T18:56:10.658Z,51.9
2019-01-23T19:01:12.822Z,51.9
2019-01-23T19:06:14.841Z,53.1
2019-01-23T19:11:16.902Z,53.1
2019-01-23T19:16:19.087Z,53
2019-01-23T19:21:21.258Z,52.4
2019-01-23T19:26:26.341Z,52.3
2019-01-23T19:31:28.742Z,52.2
2019-01-23T19:36:34.340Z,52.1
2019-01-23T19:41:36.493Z,51.9
2019-01-23T19:46:47.690Z,51.9
2019-01-23T19:51:49.803Z,51.8
2019-01-23T19:56:51.916Z,51.7
2019-01-23T20:01:54.021Z,51.7
2019-01-23T20:06:56.145Z,51.6
2019-01-23T20:12:02.887Z,51.6
2019-01-23T20:17:16.009Z,51.4
2019-01-23T20:22:19.973Z,51.4
2019-01-23T20:27:23.098Z,51.3
2019-01-23T20:32:28.196Z,51.2
2019-01-23T20:37:33.390Z,51.1
2019-01-23T20:42:36.981Z,51.1
2019-01-23T20:47:39.097Z,51
2019-01-23T20:52:41.282Z,50.9
2019-01-23T20:57:43.407Z,50.8
2019-01-23T21:02:48.359Z,50.7
2019-01-23T21:07:53.777Z,50.6
2019-01-23T21:12:57.111Z,50.6
2019-01-23T21:17:59.235Z,50.4
2019-01-23T21:23:07.376Z,50.4
2019-01-23T21:28:10.610Z,50.2
2019-01-23T21:33:12.720Z,50.2
2019-01-23T21:38:14.891Z,50.1
2019-01-23T21:43:17.026Z,50
2019-01-23T21:48:22.057Z,49.9
2019-01-23T21:53:24.176Z,49.8
2019-01-23T21:58:29.255Z,49.7
2019-01-23T22:03:36.377Z,49.7
2019-01-23T22:08:38.395Z,49.6
2019-01-23T22:13:40.506Z,49.5
2019-01-23T22:18:46.076Z,49.4
2019-01-23T22:23:49.458Z,49.3
2019-01-23T22:28:54.592Z,49.2
2019-01-23T22:33:59.637Z,49.1
2019-01-23T22:39:01.702Z,49.1
2019-01-23T22:44:03.767Z,48.9
2019-01-23T22:49:06.655Z,48.9
2019-01-23T22:54:09.795Z,48.8
2019-01-23T22:59:11.876Z,48.7
2019-01-23T23:04:13.956Z,48.6
2019-01-23T23:09:16.052Z,48.6
2019-01-23T23:14:21.077Z,48.4
2019-01-23T23:19:23.118Z,48.4
2019-01-23T23:24:25.198Z,48.3
2019-01-23T23:29:30.203Z,48.2
2019-01-23T23:34:41.243Z,48.1
2019-01-23T23:39:46.882Z,47.5
2019-01-23T23:44:51.868Z,47.3
2019-01-23T23:49:54.730Z,47.2
2019-01-23T23:54:56.667Z,47.2
